Time;durP1;ratioP1;P1;durP2;ratioP2;P2;SDS_P1;SDS_P2;PMS_P1;PMS_P2;Temp;Humidity;BMP_temperature;BMP_pressure;BME280_temperature;BME280_humidity;BME280_pressure;Samples;Min_cycle;Max_cycle;Signal;HPM_P1;HPM_P2
2023/05/18 00:00:20;;;;;;;5.73;2.27;;;;;;;2.89;100.00;102155.72;6019989;28;20500;-68
2023/05/18 00:03:15;;;;;;;10.63;3.00;;;;;;;2.66;100.00;102146.19;6028935;28;20457;-68
2023/05/18 00:06:10;;;;;;;8.82;2.95;;;;;;;2.63;100.00;102156.75;6042483;28;20420;-69
2023/05/18 00:09:06;;;;;;;5.33;2.47;;;;;;;2.57;100.00;102161.38;6042644;28;20041;-69
2023/05/18 00:12:03;;;;;;;8.47;2.57;;;;;;;2.49;100.00;102163.44;6020532;28;20022;-68
2023/05/18 00:14:58;;;;;;;7.25;2.45;;;;;;;2.32;100.00;102138.75;6031821;28;20031;-70
2023/05/18 00:17:53;;;;;;;5.47;2.27;;;;;;;2.34;100.00;102160.47;6029144;28;20378;-67
2023/05/18 00:20:57;;;;;;;12.03;2.90;;;;;;;2.19;100.00;102145.38;6029321;28;20030;-67
2023/05/18 00:23:52;;;;;;;7.55;2.53;;;;;;;2.15;100.00;102154.22;6027515;28;20038;-68
2023/05/18 00:26:48;;;;;;;5.87;2.50;;;;;;;2.10;100.00;102150.09;6029008;28;20037;-69
2023/05/18 00:29:43;;;;;;;8.32;2.80;;;;;;;2.07;100.00;102153.66;6027993;28;20098;-67
2023/05/18 00:32:38;;;;;;;7.20;3.00;;;;;;;2.06;100.00;102158.97;6020312;28;20480;-68
2023/05/18 00:35:34;;;;;;;6.57;2.70;;;;;;;2.07;100.00;102166.75;6028180;28;20022;-67
2023/05/18 00:38:29;;;;;;;8.02;2.67;;;;;;;1.97;100.00;102149.69;6028635;28;20034;-67
2023/05/18 00:41:26;;;;;;;5.93;2.80;;;;;;;1.99;100.00;102158.31;6028624;28;20033;-69
2023/05/18 00:44:21;;;;;;;10.18;3.40;;;;;;;1.96;100.00;102155.81;6009387;28;20757;-68
2023/05/18 00:47:19;;;;;;;6.53;3.00;;;;;;;1.99;100.00;102167.94;6022692;28;20042;-67
2023/05/18 00:50:15;;;;;;;10.40;2.75;;;;;;;1.92;100.00;102156.84;6028410;28;20031;-68
2023/05/18 00:53:10;;;;;;;8.18;2.60;;;;;;;1.93;100.00;102174.22;6026384;28;20026;-68
2023/05/18 00:56:06;;;;;;;8.10;2.30;;;;;;;1.82;100.00;102160.72;6018723;28;20030;-67
2023/05/18 00:59:02;;;;;;;6.78;2.50;;;;;;;1.80;100.00;102163.38;6029133;28;20057;-68
2023/05/18 01:01:57;;;;;;;9.32;2.30;;;;;;;1.72;100.00;102160.19;6051865;28;20115;-67
2023/05/18 01:04:52;;;;;;;8.33;2.67;;;;;;;2.43;100.00;102180.22;6030820;28;20034;-68
2023/05/18 01:07:49;;;;;;;8.67;3.37;;;;;;;2.58;100.00;102166.56;6033942;28;20624;-67
2023/05/18 01:10:45;;;;;;;4.78;2.28;;;;;;;2.19;100.00;102166.31;6043367;28;20285;-67
2023/05/18 01:13:57;;;;;;;12.70;2.35;;;;;;;2.05;100.00;102173.81;6026028;28;20546;-67
2023/05/18 01:17:10;;;;;;;24.45;3.22;;;;;;;1.98;100.00;102177.56;6022393;28;20552;-68
2023/05/18 01:20:18;;;;;;;7.47;2.42;;;;;;;1.99;100.00;102162.69;6019365;28;20035;-67
2023/05/18 01:23:41;;;;;;;6.72;2.20;;;;;;;2.50;100.00;102181.69;6024106;28;20409;-67
2023/05/18 01:26:40;;;;;;;8.93;3.00;;;;;;;2.14;100.00;102167.38;6018051;28;20030;-68
2023/05/18 01:29:36;;;;;;;7.20;2.20;;;;;;;1.91;100.00;102165.59;6022894;28;20079;-67
2023/05/18 01:32:39;;;;;;;4.63;2.33;;;;;;;1.76;100.00;102171.38;6021042;28;20030;-67
2023/05/18 01:35:35;;;;;;;7.32;2.35;;;;;;;1.90;100.00;102168.28;6026680;28;20030;-67
2023/05/18 01:38:31;;;;;;;10.98;2.25;;;;;;;1.85;100.00;102186.72;6026327;28;20157;-67
2023/05/18 01:41:28;;;;;;;8.93;2.28;;;;;;;1.70;100.00;102189.91;6014229;28;20037;-68
2023/05/18 01:44:28;;;;;;;7.82;2.65;;;;;;;1.51;100.00;102180.97;6024395;28;20034;-68
2023/05/18 01:47:24;;;;;;;7.60;2.22;;;;;;;1.74;100.00;102187.13;6025673;28;20041;-69
2023/05/18 01:50:26;;;;;;;7.18;2.08;;;;;;;1.89;100.00;102193.56;6026898;28;20042;-67
2023/05/18 01:53:57;;;;;;;5.55;2.22;;;;;;;1.62;100.00;102184.09;6024147;28;20034;-67
2023/05/18 01:56:53;;;;;;;6.32;2.22;;;;;;;1.83;100.00;102172.00;6012340;28;20129;-69
2023/05/18 01:59:49;;;;;;;7.22;2.22;;;;;;;1.58;100.00;102177.25;6019210;28;20065;-68
2023/05/18 02:02:45;;;;;;;7.88;2.45;;;;;;;1.40;100.00;102168.28;6025697;28;20465;-69
2023/05/18 02:05:40;;;;;;;6.57;2.10;;;;;;;1.58;100.00;102192.91;6020931;28;20093;-70
2023/05/18 02:08:36;;;;;;;9.40;2.50;;;;;;;1.90;100.00;102195.28;6017131;28;20089;-68
2023/05/18 02:11:31;;;;;;;8.23;2.80;;;;;;;1.66;100.00;102191.75;6049086;28;20096;-70
2023/05/18 02:14:26;;;;;;;8.67;2.47;;;;;;;1.50;100.00;102179.25;6049669;28;20038;-68
2023/05/18 02:17:24;;;;;;;5.70;2.30;;;;;;;1.78;100.00;102188.72;6034019;28;20493;-68
2023/05/18 02:20:20;;;;;;;9.43;2.08;;;;;;;2.34;100.00;102180.56;6049867;28;20352;-68
2023/05/18 02:23:16;;;;;;;7.47;2.93;;;;;;;2.50;100.00;102171.22;6025739;28;20494;-67
2023/05/18 02:26:11;;;;;;;7.32;2.35;;;;;;;2.91;100.00;102180.06;6026243;28;20026;-68
2023/05/18 02:29:10;;;;;;;6.97;2.67;;;;;;;3.07;100.00;102188.19;6024847;28;20489;-68
2023/05/18 02:32:06;;;;;;;6.68;2.20;;;;;;;2.67;100.00;102178.41;6026277;28;20022;-68
2023/05/18 02:35:02;;;;;;;9.95;2.90;;;;;;;2.64;100.00;102175.91;6024521;28;20758;-68
2023/05/18 02:37:57;;;;;;;6.65;2.20;;;;;;;3.00;100.00;102192.81;6025783;28;20030;-68
2023/05/18 02:40:52;;;;;;;8.70;2.53;;;;;;;3.45;100.00;102190.91;6018682;28;20091;-67
2023/05/18 02:43:48;;;;;;;8.63;2.50;;;;;;;3.66;96.75;102178.69;6028311;28;20112;-68
2023/05/18 02:46:43;;;;;;;9.57;2.70;;;;;;;3.41;94.15;102189.34;6045353;28;20034;-67
2023/05/18 02:49:38;;;;;;;5.57;1.90;;;;;;;2.81;96.15;102183.97;6032218;28;20489;-67
2023/05/18 02:52:33;;;;;;;5.67;1.60;;;;;;;3.49;95.90;102187.25;6017806;28;20026;-67
2023/05/18 02:55:29;;;;;;;4.93;2.07;;;;;;;4.05;95.50;102190.03;6025199;28;20035;-67
2023/05/18 02:58:24;;;;;;;6.47;2.45;;;;;;;3.42;92.04;102191.06;6025976;28;20046;-68
2023/05/18 03:01:20;;;;;;;5.78;2.20;;;;;;;2.75;94.38;102206.03;6021790;28;20026;-69
2023/05/18 03:04:15;;;;;;;7.53;2.80;;;;;;;2.68;97.28;102201.94;6023023;28;20038;-69
2023/05/18 03:07:11;;;;;;;5.72;2.05;;;;;;;3.04;96.40;102191.78;6047101;28;20027;-68
2023/05/18 03:10:06;;;;;;;9.33;2.30;;;;;;;3.03;96.07;102203.19;6049411;28;20096;-69
2023/05/18 03:13:02;;;;;;;5.97;2.38;;;;;;;2.41;95.44;102208.22;6014614;28;20026;-69
2023/05/18 03:15:57;;;;;;;5.68;2.58;;;;;;;2.61;98.10;102210.09;6013789;28;20047;-69
2023/05/18 03:18:54;;;;;;;5.73;2.00;;;;;;;1.92;97.80;102198.69;6024811;28;20038;-69
2023/05/18 03:21:49;;;;;;;5.97;2.05;;;;;;;1.66;99.05;102211.81;6025770;28;20026;-69
2023/05/18 03:24:44;;;;;;;7.35;2.15;;;;;;;1.85;100.00;102205.03;6024691;28;20038;-69
2023/05/18 03:27:40;;;;;;;8.17;2.67;;;;;;;2.23;100.00;102194.03;6021736;28;20425;-69
2023/05/18 03:30:35;;;;;;;7.18;2.30;;;;;;;3.26;100.00;102208.31;6024897;28;20410;-69
2023/05/18 03:33:30;;;;;;;5.03;2.40;;;;;;;3.13;97.40;102208.88;6029364;28;20045;-69
2023/05/18 03:36:27;;;;;;;6.27;2.60;;;;;;;2.32;95.26;102205.94;6029605;28;20026;-68
2023/05/18 03:39:22;;;;;;;4.57;2.15;;;;;;;2.46;98.00;102222.00;6029769;28;20041;-68
2023/05/18 03:42:17;;;;;;;6.47;2.10;;;;;;;2.39;97.15;102204.81;6026217;28;20117;-68
2023/05/18 03:45:12;;;;;;;6.50;2.17;;;;;;;1.78;97.43;102193.09;6022464;28;20343;-68
2023/05/18 03:48:08;;;;;;;5.10;2.53;;;;;;;2.36;100.00;102208.38;6029745;28;20034;-68
2023/05/18 03:51:03;;;;;;;6.57;2.20;;;;;;;2.26;98.93;102219.25;6029546;28;20036;-68
2023/05/18 03:53:59;;;;;;;10.15;2.80;;;;;;;2.02;99.24;102226.22;6028927;28;20551;-68
2023/05/18 03:56:54;;;;;;;11.27;2.83;;;;;;;2.23;100.00;102214.13;6022727;28;20370;-68
2023/05/18 03:59:50;;;;;;;9.90;2.43;;;;;;;2.69;100.00;102208.03;6028848;28;20041;-68
2023/05/18 04:02:45;;;;;;;9.63;2.70;;;;;;;3.48;98.94;102219.63;6025899;28;20034;-67
2023/05/18 04:05:43;;;;;;;5.38;2.72;;;;;;;3.34;94.51;102229.84;6041872;28;20081;-67
2023/05/18 04:08:40;;;;;;;8.43;2.60;;;;;;;2.92;94.95;102215.84;6019465;28;20037;-69
2023/05/18 04:11:36;;;;;;;5.43;2.33;;;;;;;3.42;95.00;102217.28;6029285;28;20040;-67
2023/05/18 04:14:31;;;;;;;8.47;2.43;;;;;;;3.89;92.71;102203.91;6028661;28;20358;-67
2023/05/18 04:17:27;;;;;;;6.07;2.53;;;;;;;4.30;92.43;102216.06;6028372;28;20033;-69
2023/05/18 04:20:22;;;;;;;7.93;2.23;;;;;;;4.18;91.13;102222.69;6029267;28;20037;-68
2023/05/18 04:23:18;;;;;;;9.10;2.60;;;;;;;3.84;89.87;102219.00;6028529;28;20089;-68
2023/05/18 04:26:18;;;;;;;6.63;2.53;;;;;;;3.93;89.44;102218.63;6027754;28;20034;-68
2023/05/18 04:29:14;;;;;;;5.25;2.08;;;;;;;3.99;88.42;102234.09;6011949;28;20053;-67
2023/05/18 04:32:09;;;;;;;7.00;2.13;;;;;;;3.51;90.06;102237.88;6042195;28;20030;-68
2023/05/18 04:35:05;;;;;;;7.27;1.90;;;;;;;3.42;92.07;102227.78;6052043;28;20053;-68
2023/05/18 04:38:01;;;;;;;4.63;2.20;;;;;;;3.61;92.76;102247.06;6041132;28;20275;-68
2023/05/18 04:40:59;;;;;;;7.10;2.20;;;;;;;3.83;93.22;102235.69;6016484;28;20026;-68
2023/05/18 04:43:54;;;;;;;6.82;2.33;;;;;;;3.96;93.29;102244.72;6015234;28;20046;-68
2023/05/18 04:46:51;;;;;;;10.30;2.07;;;;;;;4.03;93.59;102243.53;6023598;28;20132;-70
2023/05/18 04:49:47;;;;;;;5.95;2.10;;;;;;;4.10;92.12;102240.56;6028559;28;20034;-69
2023/05/18 04:52:47;;;;;;;7.47;2.38;;;;;;;4.29;92.41;102239.78;6010336;28;20457;-69
2023/05/18 04:55:42;;;;;;;6.65;2.50;;;;;;;4.67;92.12;102238.88;6024080;28;20488;-69
2023/05/18 04:58:38;;;;;;;4.93;2.30;;;;;;;5.03;91.74;102247.66;6028310;28;20030;-69
2023/05/18 05:01:33;;;;;;;5.55;2.25;;;;;;;5.06;90.01;102242.25;6028319;28;20118;-69
2023/05/18 05:04:29;;;;;;;8.00;2.20;;;;;;;5.39;88.54;102245.03;6026689;28;20144;-70
2023/05/18 05:07:24;;;;;;;4.57;2.22;;;;;;;5.70;87.45;102242.59;6042767;28;20049;-69
2023/05/18 05:10:19;;;;;;;6.63;1.80;;;;;;;6.05;85.96;102242.59;6023839;28;20057;-69
2023/05/18 05:13:15;;;;;;;6.57;2.20;;;;;;;6.28;84.27;102247.50;6026601;28;20303;-70
2023/05/18 05:16:10;;;;;;;7.97;2.57;;;;;;;6.54;82.79;102239.06;6048632;28;20087;-69
2023/05/18 05:19:06;;;;;;;4.78;2.50;;;;;;;7.06;81.03;102243.19;6045966;28;20034;-69
2023/05/18 05:22:01;;;;;;;5.53;2.03;;;;;;;7.42;78.73;102234.13;6017971;28;20106;-67
2023/05/18 05:24:56;;;;;;;6.73;2.83;;;;;;;8.24;76.88;102240.63;6027238;28;20026;-67
2023/05/18 05:27:51;;;;;;;5.07;2.30;;;;;;;9.15;71.00;102230.44;6027614;28;20041;-67
2023/05/18 05:30:47;;;;;;;6.07;1.93;;;;;;;9.26;70.41;102243.81;6027419;28;20026;-68
2023/05/18 05:33:44;;;;;;;6.67;2.37;;;;;;;9.59;67.52;102252.19;6026990;28;20035;-68
2023/05/18 05:36:39;;;;;;;9.43;2.50;;;;;;;9.65;67.44;102239.50;6026605;28;20033;-68
2023/05/18 05:39:34;;;;;;;9.57;2.63;;;;;;;8.76;68.94;102249.69;6027514;28;20039;-68
2023/05/18 05:42:30;;;;;;;7.13;2.03;;;;;;;9.63;67.02;102236.94;6026787;28;21058;-67
2023/05/18 05:45:27;;;;;;;11.68;2.58;;;;;;;9.93;64.95;102250.78;6032418;28;20433;-68
2023/05/18 05:48:22;;;;;;;6.63;2.70;;;;;;;9.57;65.41;102240.84;6027160;28;20037;-68
2023/05/18 05:51:17;;;;;;;5.00;2.60;;;;;;;9.77;65.74;102252.75;6026430;28;20448;-68
2023/05/18 05:54:13;;;;;;;4.87;2.43;;;;;;;9.07;67.97;102263.63;6025728;28;20042;-68
2023/05/18 05:57:08;;;;;;;13.40;3.17;;;;;;;8.43;69.62;102248.28;6026951;28;20129;-68
2023/05/18 06:00:04;;;;;;;6.60;2.37;;;;;;;8.50;70.13;102257.56;6026972;28;20054;-68
2023/05/18 06:03:00;;;;;;;7.78;2.38;;;;;;;8.46;68.59;102258.69;6026577;28;20050;-68
2023/05/18 06:05:56;;;;;;;5.33;3.20;;;;;;;8.16;72.07;102277.22;6026273;28;20112;-68
2023/05/18 06:08:51;;;;;;;7.93;2.78;;;;;;;7.91;70.65;102274.38;6026612;28;20129;-68
2023/05/18 06:11:46;;;;;;;7.23;2.23;;;;;;;7.69;73.90;102261.56;6024179;28;20026;-68
2023/05/18 06:14:41;;;;;;;10.30;2.70;;;;;;;8.13;71.33;102274.75;6026154;28;20038;-67
2023/05/18 06:17:37;;;;;;;9.80;2.60;;;;;;;8.85;70.27;102266.78;6026474;28;20034;-67
2023/05/18 06:20:33;;;;;;;6.03;2.13;;;;;;;8.66;70.11;102274.19;6026520;28;20064;-68
2023/05/18 06:23:28;;;;;;;12.07;4.70;;;;;;;8.53;71.32;102274.09;6025803;28;20054;-68
2023/05/18 06:26:23;;;;;;;7.50;2.43;;;;;;;9.15;70.91;102264.84;6021811;28;20332;-68
2023/05/18 06:29:20;;;;;;;7.97;2.83;;;;;;;9.26;67.92;102275.59;6019244;28;20042;-68
2023/05/18 06:32:15;;;;;;;10.05;2.97;;;;;;;9.39;66.96;102273.84;6021860;28;20381;-68
2023/05/18 06:35:11;;;;;;;9.33;3.07;;;;;;;9.76;67.82;102260.78;6025151;28;20026;-67
2023/05/18 06:38:07;;;;;;;7.50;3.10;;;;;;;9.29;66.47;102275.41;6047127;28;20196;-67
2023/05/18 06:41:02;;;;;;;8.98;3.10;;;;;;;9.36;69.61;102268.75;6028828;28;20023;-70
2023/05/18 06:43:59;;;;;;;10.23;2.33;;;;;;;9.69;64.00;102267.47;6028772;28;20037;-70
2023/05/18 06:46:54;;;;;;;7.88;2.75;;;;;;;9.54;65.31;102277.25;6026694;28;20102;-68
2023/05/18 06:49:50;;;;;;;6.63;2.70;;;;;;;9.51;66.14;102280.97;6035864;28;20022;-68
2023/05/18 06:52:45;;;;;;;4.97;2.28;;;;;;;10.09;62.34;102259.38;6049249;28;20026;-68
2023/05/18 06:55:40;;;;;;;10.73;2.33;;;;;;;10.31;63.54;102276.47;6048367;28;20033;-68
2023/05/18 06:58:36;;;;;;;24.17;2.80;;;;;;;10.46;62.44;102280.75;6039660;28;20277;-68
2023/05/18 07:01:32;;;;;;;9.23;2.45;;;;;;;10.40;61.29;102273.22;6020243;28;20034;-67
2023/05/18 07:04:27;;;;;;;9.50;2.42;;;;;;;10.36;63.78;102275.22;6029255;28;20030;-68
2023/05/18 07:07:23;;;;;;;6.33;1.90;;;;;;;11.30;59.57;102273.75;6022389;28;20062;-68
2023/05/18 07:10:18;;;;;;;9.50;2.33;;;;;;;10.74;59.02;102289.28;6022940;28;20026;-68
2023/05/18 07:13:14;;;;;;;8.05;2.15;;;;;;;10.83;59.36;102273.69;6053242;28;20033;-68
2023/05/18 07:16:10;;;;;;;11.85;2.70;;;;;;;10.63;60.38;102267.97;6037775;28;20057;-67
2023/05/18 07:19:05;;;;;;;6.38;2.17;;;;;;;10.52;60.73;102299.72;6024288;28;20023;-68
2023/05/18 07:22:00;;;;;;;7.73;1.97;;;;;;;10.46;61.87;102296.66;6034813;28;20023;-69
2023/05/18 07:24:57;;;;;;;6.57;1.90;;;;;;;11.18;58.80;102274.66;6029105;28;20660;-68
2023/05/18 07:27:53;;;;;;;7.70;2.15;;;;;;;11.17;59.25;102288.91;6030082;28;20034;-68
2023/05/18 07:30:48;;;;;;;10.57;3.03;;;;;;;10.61;59.19;102284.97;6028303;28;20030;-68
2023/05/18 07:33:43;;;;;;;8.37;3.10;;;;;;;10.96;59.69;102285.13;6016888;28;20026;-68
2023/05/18 07:36:39;;;;;;;7.83;1.63;;;;;;;11.28;56.91;102283.63;6053926;28;20092;-68
2023/05/18 07:39:34;;;;;;;7.37;1.97;;;;;;;11.41;57.83;102287.09;6039838;28;20516;-68
2023/05/18 07:42:32;;;;;;;4.60;1.67;;;;;;;11.79;54.81;102277.16;6028499;28;20101;-68
2023/05/18 07:45:28;;;;;;;4.45;1.98;;;;;;;11.54;56.56;102276.41;6037924;28;20034;-68
2023/05/18 07:48:23;;;;;;;6.88;1.90;;;;;;;11.98;54.25;102273.09;6044882;28;20044;-67
2023/05/18 07:51:18;;;;;;;14.43;2.57;;;;;;;11.61;56.10;102278.50;6021256;28;20052;-67
2023/05/18 07:54:14;;;;;;;12.33;2.10;;;;;;;11.95;56.06;102282.16;6028632;28;20262;-67
2023/05/18 07:57:09;;;;;;;4.87;1.60;;;;;;;11.97;52.65;102268.75;6018019;28;20037;-68
2023/05/18 08:00:05;;;;;;;11.57;2.53;;;;;;;11.77;54.69;102272.91;6028770;28;20359;-69
2023/05/18 08:03:00;;;;;;;6.43;1.80;;;;;;;11.87;54.79;102285.41;6029296;28;20100;-67
2023/05/18 08:05:56;;;;;;;9.77;1.80;;;;;;;11.93;53.68;102265.47;6025142;28;20033;-67
2023/05/18 08:08:51;;;;;;;6.00;1.80;;;;;;;12.32;53.36;102274.84;6025764;28;20277;-67
2023/05/18 08:11:46;;;;;;;7.83;1.70;;;;;;;12.25;53.37;102284.28;6023128;28;20038;-67
2023/05/18 08:14:42;;;;;;;9.35;2.05;;;;;;;12.33;52.53;102273.91;6020772;28;20433;-67
2023/05/18 08:17:37;;;;;;;8.43;2.10;;;;;;;12.28;51.67;102276.94;6028296;28;20065;-68
2023/05/18 08:20:33;;;;;;;8.07;1.63;;;;;;;12.54;52.05;102266.91;6028738;28;20038;-68
2023/05/18 08:23:28;;;;;;;6.57;2.20;;;;;;;12.35;51.69;102270.16;6025634;28;20077;-68
2023/05/18 08:26:25;;;;;;;9.27;1.92;;;;;;;12.33;52.29;102272.09;6028798;28;20030;-68
2023/05/18 08:29:21;;;;;;;5.35;1.67;;;;;;;12.27;53.41;102267.25;6028352;28;20023;-68
2023/05/18 08:32:16;;;;;;;3.47;1.60;;;;;;;12.23;52.67;102259.63;6028675;28;20029;-69
2023/05/18 08:35:11;;;;;;;4.40;1.67;;;;;;;12.51;52.84;102252.03;6028057;28;20030;-69
2023/05/18 08:38:06;;;;;;;6.10;1.77;;;;;;;13.00;51.51;102248.09;6028962;28;20034;-69
2023/05/18 08:41:28;;;;;;;9.03;1.90;;;;;;;13.37;50.17;102254.81;6017824;28;20113;-68
2023/05/18 08:44:44;;;;;;;5.43;1.65;;;;;;;14.09;48.71;102261.16;6024201;28;20046;-69
2023/05/18 08:47:40;;;;;;;5.55;1.60;;;;;;;14.26;48.30;102257.91;6018540;28;20042;-69
2023/05/18 08:50:37;;;;;;;7.77;1.80;;;;;;;13.34;49.58;102260.44;6023464;28;20037;-68
2023/05/18 08:53:35;;;;;;;8.65;2.10;;;;;;;13.37;49.70;102238.00;6027444;28;20026;-68
2023/05/18 08:56:32;;;;;;;7.47;1.55;;;;;;;13.48;48.71;102241.44;6016181;28;20114;-68
2023/05/18 08:59:30;;;;;;;8.35;2.03;;;;;;;13.76;48.34;102240.00;6027266;28;20125;-69
2023/05/18 09:02:26;;;;;;;5.00;1.88;;;;;;;13.32;49.00;102245.50;6027770;28;20097;-69
2023/05/18 09:05:22;;;;;;;5.25;1.95;;;;;;;12.92;50.68;102258.53;6030035;28;20037;-68
2023/05/18 09:08:18;;;;;;;5.90;1.60;;;;;;;13.57;48.81;102255.84;6049182;28;20030;-68
2023/05/18 09:11:13;;;;;;;7.75;1.92;;;;;;;13.68;48.29;102242.47;6051023;28;20030;-68
2023/05/18 09:14:09;;;;;;;6.22;1.73;;;;;;;13.70;48.93;102256.50;6020240;28;20433;-68
2023/05/18 09:17:05;;;;;;;7.88;2.65;;;;;;;13.50;48.22;102244.00;6025757;28;20029;-68
2023/05/18 09:20:00;;;;;;;7.03;1.83;;;;;;;14.13;47.59;102246.56;6033722;28;20025;-68
2023/05/18 09:22:56;;;;;;;8.63;1.92;;;;;;;14.39;47.82;102235.50;6051144;28;20513;-68
2023/05/18 09:25:51;;;;;;;6.38;1.90;;;;;;;14.32;46.57;102222.69;6027486;28;20054;-68
2023/05/18 09:28:51;;;;;;;9.70;2.50;;;;;;;14.30;46.77;102221.94;6022816;28;20027;-69
2023/05/18 09:31:47;;;;;;;8.20;1.77;;;;;;;14.25;47.73;102250.84;6025834;28;20105;-69
2023/05/18 09:34:44;;;;;;;11.55;2.55;;;;;;;14.63;46.65;102230.69;6026736;28;20374;-69
2023/05/18 09:37:42;;;;;;;5.68;1.60;;;;;;;14.60;46.33;102234.47;6027003;28;20037;-69
2023/05/18 09:40:43;;;;;;;5.10;1.58;;;;;;;14.92;46.87;102236.13;6018259;28;20454;-68
2023/05/18 09:43:38;;;;;;;;;;;;;;;13.90;46.57;102242.34;6028152;28;20380;-68
2023/05/18 09:46:38;;;;;;;7.50;2.08;;;;;;;14.95;46.88;102226.00;6028687;28;19918;-68
2023/05/18 09:49:33;;;;;;;7.28;1.40;;;;;;;15.16;45.85;102234.78;6025479;28;20061;-69
2023/05/18 09:52:29;;;;;;;7.00;1.77;;;;;;;15.02;45.30;102223.63;6024901;28;20026;-68
2023/05/18 09:55:24;;;;;;;9.23;2.10;;;;;;;14.36;47.02;102236.63;6029822;28;20026;-68
2023/05/18 09:58:20;;;;;;;10.48;1.83;;;;;;;13.80;48.23;102225.44;6050715;28;20091;-68
2023/05/18 10:01:15;;;;;;;6.30;1.67;;;;;;;13.87;47.75;102231.09;6045407;28;20510;-69
2023/05/18 10:04:10;;;;;;;8.40;2.38;;;;;;;14.32;47.05;102229.03;6024652;28;20269;-69
2023/05/18 10:07:11;;;;;;;10.60;2.17;;;;;;;13.99;47.74;102228.25;6017263;28;20121;-68
2023/05/18 10:10:07;;;;;;;5.55;1.80;;;;;;;13.44;48.59;102218.72;6024658;28;20482;-69
2023/05/18 10:13:02;;;;;;;7.13;1.70;;;;;;;13.49;49.55;102236.97;6029169;28;20053;-68
2023/05/18 10:16:00;;;;;;;4.45;1.65;;;;;;;13.80;49.28;102229.94;6056362;28;20066;-68
2023/05/18 10:18:55;;;;;;;7.55;1.80;;;;;;;13.59;49.10;102228.09;6036566;28;20034;-69
2023/05/18 10:21:51;;;;;;;8.52;2.22;;;;;;;13.87;48.07;102226.59;6024573;28;20033;-69
2023/05/18 10:24:50;;;;;;;6.18;1.75;;;;;;;14.18;46.29;102212.34;6026842;28;20029;-68
2023/05/18 10:27:47;;;;;;;6.95;1.73;;;;;;;14.51;45.92;102216.59;6025971;28;20377;-68
2023/05/18 10:30:42;;;;;;;6.85;1.70;;;;;;;13.72;47.13;102217.25;6026293;28;20030;-68
2023/05/18 10:33:37;;;;;;;4.97;1.40;;;;;;;14.03;48.34;102221.66;6039728;28;20081;-68
2023/05/18 10:36:34;;;;;;;4.67;1.60;;;;;;;15.33;45.41;102204.69;6015349;28;20385;-69
2023/05/18 10:39:35;;;;;;;6.82;1.80;;;;;;;15.82;43.18;102210.88;6024035;28;20066;-69
2023/05/18 10:42:31;;;;;;;4.57;1.73;;;;;;;16.02;42.68;102209.84;6024294;28;20022;-68
2023/05/18 10:45:26;;;;;;;4.95;1.83;;;;;;;15.19;44.69;102196.25;6024783;28;20041;-69
2023/05/18 10:48:22;;;;;;;13.47;1.70;;;;;;;15.10;45.46;102203.25;6024057;28;20037;-69
2023/05/18 10:51:19;;;;;;;7.03;2.00;;;;;;;14.97;45.19;102202.69;6024955;28;20033;-68
2023/05/18 10:54:14;;;;;;;9.55;1.73;;;;;;;15.61;44.34;102196.81;6022872;28;20038;-68
2023/05/18 10:57:11;;;;;;;7.53;1.87;;;;;;;15.86;44.02;102186.38;6025899;28;20546;-68
2023/05/18 11:00:08;;;;;;;4.40;1.80;;;;;;;16.15;43.08;102191.63;6026180;28;20054;-68
2023/05/18 11:03:07;;;;;;;6.25;1.80;;;;;;;15.68;42.75;102184.59;6024374;28;20042;-68
2023/05/18 11:06:05;;;;;;;6.55;1.80;;;;;;;15.29;43.47;102179.22;6040703;28;20473;-68
2023/05/18 11:09:00;;;;;;;8.70;2.55;;;;;;;14.70;43.75;102179.25;6025123;28;20038;-68
2023/05/18 11:11:57;;;;;;;7.53;1.90;;;;;;;14.93;44.26;102168.34;6025722;28;20077;-69
2023/05/18 11:14:54;;;;;;;12.13;1.83;;;;;;;15.12;44.15;102174.56;6025309;28;20274;-68
2023/05/18 11:18:12;;;;;;;9.10;2.05;;;;;;;15.14;44.26;102180.59;6025711;28;20030;-69
2023/05/18 11:21:23;;;;;;;4.47;1.50;;;;;;;15.80;42.85;102184.28;6027493;28;20030;-69
2023/05/18 11:24:22;;;;;;;7.80;2.55;;;;;;;16.32;41.16;102172.13;6046742;28;20121;-68
2023/05/18 11:27:20;;;;;;;4.88;1.67;;;;;;;16.00;42.16;102155.63;6004985;28;20550;-68
2023/05/18 11:30:44;;;;;;;4.85;1.70;;;;;;;15.98;41.57;102163.78;6048236;28;20026;-68
2023/05/18 11:33:41;;;;;;;3.45;1.48;;;;;;;16.61;41.66;102143.41;6048875;28;20513;-68
2023/05/18 11:36:43;;;;;;;5.97;1.92;;;;;;;17.41;39.02;102155.94;6049170;28;20539;-68
2023/05/18 11:39:39;;;;;;;7.03;2.15;;;;;;;16.47;40.43;102167.97;6032630;28;20548;-68
2023/05/18 11:42:35;;;;;;;5.38;1.40;;;;;;;16.72;41.22;102155.75;6011060;28;20036;-69
2023/05/18 11:45:32;;;;;;;4.75;1.80;;;;;;;16.58;39.76;102157.09;6025094;28;20106;-69
2023/05/18 11:48:30;;;;;;;7.32;1.42;;;;;;;16.73;40.45;102152.09;6026387;28;20377;-68
2023/05/18 11:51:27;;;;;;;5.53;1.63;;;;;;;17.06;39.47;102161.31;6029740;28;20454;-69
2023/05/18 11:54:25;;;;;;;7.88;1.77;;;;;;;17.41;39.35;102161.28;6028098;28;20058;-69
2023/05/18 11:57:33;;;;;;;5.10;1.85;;;;;;;16.92;39.94;102164.50;6029393;28;20037;-69
2023/05/18 12:00:29;;;;;;;5.88;1.70;;;;;;;17.03;39.90;102151.72;6033283;28;20092;-68
2023/05/18 12:03:25;;;;;;;8.07;1.60;;;;;;;17.23;40.57;102163.13;6027765;28;20073;-68
2023/05/18 12:06:20;;;;;;;4.63;1.65;;;;;;;17.46;39.91;102142.03;6021746;28;20042;-69
2023/05/18 12:09:16;;;;;;;11.05;1.83;;;;;;;17.37;38.85;102154.53;6029637;28;20525;-69
2023/05/18 12:12:15;;;;;;;7.15;1.85;;;;;;;17.13;39.60;102147.13;6027795;28;20030;-69
2023/05/18 12:15:10;;;;;;;3.85;1.38;;;;;;;16.83;40.22;102139.44;6025702;28;20421;-67
2023/05/18 12:18:06;;;;;;;9.82;1.77;;;;;;;16.93;39.37;102150.13;6029096;28;20026;-68
2023/05/18 12:21:03;;;;;;;6.40;1.30;;;;;;;17.38;40.05;102134.78;6029227;28;20026;-68
2023/05/18 12:23:59;;;;;;;7.45;1.92;;;;;;;17.56;38.50;102148.19;6041358;28;20033;-69
2023/05/18 12:26:55;;;;;;;7.15;1.80;;;;;;;17.54;39.36;102148.34;6052466;28;20033;-69
2023/05/18 12:29:50;;;;;;;4.40;1.50;;;;;;;16.56;40.21;102145.69;6052845;28;20034;-69
2023/05/18 12:32:47;;;;;;;6.10;1.90;;;;;;;16.39;40.48;102154.47;6029985;28;20030;-69
2023/05/18 12:35:43;;;;;;;11.57;4.30;;;;;;;15.82;41.55;102136.81;6028258;28;20018;-69
2023/05/18 12:38:38;;;;;;;8.47;2.47;;;;;;;16.22;40.78;102149.94;6027951;28;20030;-69
2023/05/18 12:41:33;;;;;;;3.73;1.70;;;;;;;16.53;39.57;102139.78;6037957;28;20386;-69
2023/05/18 12:44:28;;;;;;;8.43;3.93;;;;;;;16.93;38.86;102144.75;6030148;28;20280;-69
2023/05/18 12:47:24;;;;;;;7.87;1.70;;;;;;;16.95;39.27;102138.25;6025894;28;20026;-68
2023/05/18 12:50:26;;;;;;;5.87;2.07;;;;;;;16.26;41.57;102139.75;6019630;28;20060;-68
2023/05/18 12:53:22;;;;;;;3.72;1.67;;;;;;;17.06;40.23;102132.66;6027665;28;20030;-68
2023/05/18 12:56:19;;;;;;;8.60;2.10;;;;;;;17.04;38.88;102126.59;6028441;28;20474;-68
2023/05/18 12:59:16;;;;;;;6.32;1.60;;;;;;;17.51;38.77;102135.22;6027134;28;20381;-68
2023/05/18 13:02:25;;;;;;;6.45;1.73;;;;;;;17.30;38.46;102117.78;6027451;28;20473;-68
2023/05/18 13:05:24;;;;;;;5.35;1.70;;;;;;;16.73;38.91;102100.31;6021813;28;20604;-68
2023/05/18 13:08:22;;;;;;;8.32;1.80;;;;;;;16.71;38.96;102119.25;6028014;28;20042;-68
2023/05/18 13:11:17;;;;;;;7.18;1.70;;;;;;;16.59;41.05;102131.16;6028230;28;20042;-70
2023/05/18 13:14:13;;;;;;;5.40;1.55;;;;;;;17.22;40.54;102121.25;6027351;28;20049;-67
2023/05/18 13:17:08;;;;;;;7.50;1.70;;;;;;;17.39;39.88;102109.66;6027899;28;20037;-67
2023/05/18 13:20:11;;;;;;;5.70;1.50;;;;;;;17.32;40.56;102113.94;6027976;28;20470;-67
2023/05/18 13:23:11;;;;;;;5.93;1.45;;;;;;;17.65;39.76;102110.53;6015723;28;20029;-69
2023/05/18 13:26:07;;;;;;;5.80;1.60;;;;;;;17.37;38.72;102100.91;6026038;28;20048;-68
2023/05/18 13:29:03;;;;;;;6.47;1.77;;;;;;;18.12;38.90;102112.81;6027565;28;20042;-69
2023/05/18 13:31:59;;;;;;;7.47;1.98;;;;;;;17.76;39.27;102096.84;6027777;28;20034;-69
2023/05/18 13:34:54;;;;;;;8.60;1.60;;;;;;;17.23;38.97;102096.94;6026972;28;20429;-69
2023/05/18 13:37:50;;;;;;;5.70;1.53;;;;;;;17.41;39.63;102096.94;6024999;28;20041;-68
2023/05/18 13:40:46;;;;;;;6.18;1.58;;;;;;;17.79;38.49;102107.28;6026875;28;20405;-68
2023/05/18 13:43:41;;;;;;;7.60;1.90;;;;;;;17.46;37.89;102099.13;6026477;28;20037;-69